createdAt,value
2017-03-17T00:00:27.384Z,7.3
2017-03-17T00:01:29.239Z,7.3
2017-03-17T00:02:31.085Z,7.2
2017-03-17T00:03:32.948Z,7.3
2017-03-17T00:04:34.792Z,7.3
2017-03-17T00:05:36.655Z,7.3
2017-03-17T00:06:38.848Z,7.3
2017-03-17T00:07:40.693Z,7.2
2017-03-17T00:08:42.542Z,7.2
2017-03-17T00:09:44.391Z,7.2
2017-03-17T00:10:46.238Z,7.3
2017-03-17T00:11:48.094Z,7.3
2017-03-17T00:12:49.962Z,7.3
2017-03-17T00:13:51.813Z,7.4
2017-03-17T00:14:53.655Z,7.3
2017-03-17T00:15:55.846Z,7.3
2017-03-17T00:16:58.030Z,7.3
2017-03-17T00:17:59.880Z,7.3
2017-03-17T00:19:01.734Z,7.3
2017-03-17T00:20:03.598Z,7.3
2017-03-17T00:21:05.452Z,7.3
2017-03-17T00:22:07.636Z,7.3
2017-03-17T00:23:09.834Z,7.3
2017-03-17T00:24:11.684Z,7.4
2017-03-17T00:25:13.543Z,7.4
2017-03-17T00:26:15.395Z,7.4
2017-03-17T00:27:17.250Z,7.4
2017-03-17T00:28:19.106Z,7.3
2017-03-17T00:29:20.948Z,7.4
2017-03-17T00:30:22.799Z,7.4
2017-03-17T00:31:24.651Z,7.4
2017-03-17T00:32:26.496Z,7.4
2017-03-17T00:33:28.358Z,7.5
2017-03-17T00:34:30.209Z,7.5
2017-03-17T00:35:32.061Z,7.4
2017-03-17T00:36:33.904Z,7.4
2017-03-17T00:37:35.765Z,7.4
2017-03-17T00:38:37.617Z,7.4
2017-03-17T00:39:39.465Z,7.5
2017-03-17T00:40:41.657Z,7.5
2017-03-17T00:41:43.509Z,7.4
2017-03-17T00:42:45.360Z,7.3
2017-03-17T00:43:47.235Z,7.3
2017-03-17T00:44:49.118Z,7.3
2017-03-17T00:45:50.965Z,7.3
2017-03-17T00:46:52.820Z,7.3
2017-03-17T00:47:54.666Z,7.2
2017-03-17T00:48:56.525Z,7.2
2017-03-17T00:49:58.379Z,7.2
2017-03-17T00:51:00.230Z,7.2
2017-03-17T00:52:02.077Z,7.2
2017-03-17T00:53:03.932Z,7.1
2017-03-17T00:54:05.781Z,7.2
2017-03-17T00:55:07.631Z,7.1
2017-03-17T00:56:09.475Z,7.1
2017-03-17T00:57:11.322Z,7.2
2017-03-17T00:58:13.172Z,7.1
2017-03-17T00:59:15.017Z,7.1
2017-03-17T01:00:16.870Z,7.1
2017-03-17T01:01:18.730Z,7
2017-03-17T01:02:20.605Z,7.1
2017-03-17T01:03:22.458Z,7
2017-03-17T01:04:24.302Z,7
2017-03-17T01:05:26.154Z,7
2017-03-17T01:06:28.010Z,7
2017-03-17T01:07:29.856Z,6.9
2017-03-17T01:08:31.704Z,7
2017-03-17T01:09:33.568Z,7
2017-03-17T01:10:35.418Z,7
2017-03-17T01:11:37.270Z,7
2017-03-17T01:12:39.459Z,7
2017-03-17T01:13:41.312Z,7
2017-03-17T01:14:43.172Z,7
2017-03-17T01:15:45.019Z,6.9
2017-03-17T01:16:47.213Z,6.9
2017-03-17T01:17:49.055Z,6.9
2017-03-17T01:18:50.914Z,6.9
2017-03-17T01:19:52.777Z,6.8
2017-03-17T01:20:54.632Z,6.8
2017-03-17T01:21:56.833Z,6.8
2017-03-17T01:22:59.019Z,6.9
2017-03-17T01:24:00.872Z,6.8
2017-03-17T01:25:02.718Z,6.8
2017-03-17T01:26:04.570Z,6.8
2017-03-17T01:27:06.426Z,6.8
2017-03-17T01:28:08.273Z,6.7
2017-03-17T01:29:10.133Z,6.7
2017-03-17T01:30:11.999Z,6.7
2017-03-17T01:31:13.862Z,6.8
2017-03-17T01:32:15.706Z,6.8
2017-03-17T01:33:17.554Z,6.8
2017-03-17T01:34:19.414Z,6.7
2017-03-17T01:35:21.954Z,6.7
2017-03-17T01:36:23.803Z,6.7
2017-03-17T01:37:26.009Z,6.7
2017-03-17T01:38:27.856Z,6.7
2017-03-17T01:39:29.710Z,6.6
2017-03-17T01:40:31.560Z,6.6
2017-03-17T01:41:33.413Z,6.6
2017-03-17T01:42:35.261Z,6.6
2017-03-17T01:43:37.451Z,6.6
2017-03-17T01:44:39.304Z,6.5
2017-03-17T01:45:41.145Z,6.5
2017-03-17T01:46:42.999Z,6.5
2017-03-17T01:47:44.849Z,6.6
2017-03-17T01:48:46.691Z,6.5
2017-03-17T01:49:48.873Z,6.5
2017-03-17T01:50:50.711Z,6.5
2017-03-17T01:51:52.559Z,6.5
2017-03-17T01:52:54.407Z,6.5
2017-03-17T01:53:56.257Z,6.5
2017-03-17T01:54:58.103Z,6.5
2017-03-17T01:55:59.947Z,6.5
2017-03-17T01:57:01.800Z,6.4
2017-03-17T01:58:03.653Z,6.4
2017-03-17T01:59:05.504Z,6.4
2017-03-17T02:00:07.376Z,6.4
2017-03-17T02:01:09.222Z,6.3
2017-03-17T02:02:11.077Z,6.3
2017-03-17T02:03:12.927Z,6.3
2017-03-17T02:04:14.774Z,6.3
2017-03-17T02:05:16.623Z,6.3
2017-03-17T02:06:18.477Z,6.3
2017-03-17T02:07:20.668Z,6.3
2017-03-17T02:08:22.517Z,6.3
2017-03-17T02:09:24.362Z,6.2
2017-03-17T02:10:26.214Z,6.3
2017-03-17T02:11:28.078Z,6.3
2017-03-17T02:12:29.948Z,6.3
2017-03-17T02:13:31.792Z,6.3
2017-03-17T02:14:33.977Z,6.3
2017-03-17T02:15:35.825Z,6.3
2017-03-17T02:16:37.683Z,6.3
2017-03-17T02:17:39.876Z,6.4
2017-03-17T02:18:41.738Z,6.4
2017-03-17T02:19:43.586Z,6.4
2017-03-17T02:20:45.446Z,6.4
2017-03-17T02:21:47.296Z,6.4
2017-03-17T02:22:49.144Z,6.4
2017-03-17T02:23:51.000Z,6.4
2017-03-17T02:24:52.848Z,6.4
2017-03-17T02:25:54.705Z,6.4
2017-03-17T02:26:56.562Z,6.4
2017-03-17T02:27:58.413Z,6.4
2017-03-17T02:29:00.262Z,6.4
2017-03-17T02:30:02.114Z,6.4
2017-03-17T02:31:03.963Z,6.4
2017-03-17T02:32:06.137Z,6.3
2017-03-17T02:33:07.986Z,6.3
2017-03-17T02:34:09.834Z,6.3
2017-03-17T02:35:11.699Z,6.3
2017-03-17T02:36:13.993Z,6.3
2017-03-17T02:37:15.842Z,6.3
2017-03-17T02:38:18.040Z,6.3
2017-03-17T02:39:19.893Z,6.3
2017-03-17T02:40:21.741Z,6.4
2017-03-17T02:41:23.595Z,6.3
2017-03-17T02:42:25.446Z,6.3
2017-03-17T02:43:27.986Z,6.3
2017-03-17T02:44:30.173Z,6.3
2017-03-17T02:45:32.017Z,6.4
2017-03-17T02:46:33.870Z,6.4
2017-03-17T02:47:36.065Z,6.4
2017-03-17T02:48:37.948Z,6.4
2017-03-17T02:49:39.806Z,6.4
2017-03-17T02:50:41.996Z,6.5
2017-03-17T02:51:44.187Z,6.5
2017-03-17T02:52:46.723Z,6.5
2017-03-17T02:53:48.595Z,6.5
2017-03-17T02:54:50.798Z,6.5
2017-03-17T02:55:52.987Z,6.5
2017-03-17T02:56:54.840Z,6.5
2017-03-17T02:57:57.381Z,6.5
2017-03-17T02:59:00.258Z,6.6
2017-03-17T03:00:02.108Z,6.6
2017-03-17T03:01:03.953Z,6.6
2017-03-17T03:02:05.820Z,6.6
2017-03-17T03:03:07.668Z,6.7
2017-03-17T03:04:09.897Z,6.6
2017-03-17T03:05:11.752Z,6.6
2017-03-17T03:06:13.609Z,6.6
2017-03-17T03:07:15.460Z,6.7
2017-03-17T03:08:17.314Z,6.7
2017-03-17T03:09:19.165Z,6.7
2017-03-17T03:10:21.013Z,6.7
2017-03-17T03:11:22.867Z,6.7
2017-03-17T03:12:24.752Z,6.8
2017-03-17T03:13:26.597Z,6.9
2017-03-17T03:14:28.793Z,6.9
2017-03-17T03:15:30.649Z,6.9
2017-03-17T03:16:32.515Z,6.9
2017-03-17T03:17:34.719Z,6.9
2017-03-17T03:18:36.576Z,6.9
2017-03-17T03:19:38.776Z,7
2017-03-17T03:20:40.636Z,7
2017-03-17T03:21:42.485Z,7
2017-03-17T03:22:44.337Z,7
2017-03-17T03:23:46.865Z,7
2017-03-17T03:24:48.729Z,7
2017-03-17T03:25:50.583Z,7
2017-03-17T03:26:52.427Z,7
2017-03-17T03:27:54.632Z,7
2017-03-17T03:28:56.489Z,7
2017-03-17T03:29:58.361Z,7
2017-03-17T03:31:00.212Z,7
2017-03-17T03:32:02.062Z,7
2017-03-17T03:33:03.910Z,7
2017-03-17T03:34:05.761Z,7
2017-03-17T03:35:07.635Z,7
2017-03-17T03:36:09.483Z,7
2017-03-17T03:37:11.341Z,7
2017-03-17T03:38:13.183Z,7
2017-03-17T03:39:15.048Z,7
2017-03-17T03:40:16.899Z,7
2017-03-17T03:41:18.752Z,7
2017-03-17T03:42:20.606Z,7
2017-03-17T03:43:22.783Z,7
2017-03-17T03:44:24.639Z,7
2017-03-17T03:45:26.494Z,7
2017-03-17T03:46:28.344Z,7
2017-03-17T03:47:30.193Z,7
2017-03-17T03:48:32.388Z,7
2017-03-17T03:49:34.592Z,7
2017-03-17T03:50:36.446Z,6.9
2017-03-17T03:51:38.301Z,6.9
2017-03-17T03:52:40.156Z,6.9
2017-03-17T03:53:42.724Z,7
2017-03-17T03:54:44.583Z,7
2017-03-17T03:55:46.464Z,7
2017-03-17T03:56:48.321Z,7
2017-03-17T03:57:50.531Z,6.9
2017-03-17T03:58:52.729Z,6.9
2017-03-17T03:59:54.919Z,7
2017-03-17T04:00:56.770Z,7
2017-03-17T04:01:58.978Z,7
2017-03-17T04:03:00.838Z,7
2017-03-17T04:04:03.033Z,6.9
2017-03-17T04:05:04.889Z,7
2017-03-17T04:06:06.734Z,7
2017-03-17T04:07:08.927Z,7
2017-03-17T04:08:10.776Z,7
2017-03-17T04:09:12.971Z,7
2017-03-17T04:10:14.817Z,6.9
2017-03-17T04:11:16.678Z,7
2017-03-17T04:12:18.528Z,6.9
2017-03-17T04:13:21.073Z,6.9
2017-03-17T04:14:22.931Z,7
2017-03-17T04:15:24.780Z,7
2017-03-17T04:16:26.637Z,7
2017-03-17T04:17:28.490Z,7
2017-03-17T04:18:30.349Z,7
2017-03-17T04:19:32.548Z,7
2017-03-17T04:20:34.405Z,6.9
2017-03-17T04:21:36.252Z,6.9
2017-03-17T04:22:38.099Z,7
2017-03-17T04:23:40.623Z,7
2017-03-17T04:24:42.481Z,7
2017-03-17T04:25:44.330Z,7
2017-03-17T04:26:46.179Z,7
2017-03-17T04:27:48.379Z,7
2017-03-17T04:28:50.593Z,7
2017-03-17T04:29:52.790Z,7.1
2017-03-17T04:30:55.003Z,7
2017-03-17T04:31:56.848Z,7
2017-03-17T04:32:59.062Z,7.1
2017-03-17T04:34:00.914Z,7
2017-03-17T04:35:02.771Z,7
2017-03-17T04:36:04.617Z,7
2017-03-17T04:37:06.470Z,7.1
2017-03-17T04:38:08.333Z,7.1
2017-03-17T04:39:10.526Z,7.1
2017-03-17T04:40:12.707Z,7.1
2017-03-17T04:41:14.556Z,7.1
2017-03-17T04:42:16.407Z,7.1
2017-03-17T04:43:18.302Z,7.1
2017-03-17T04:44:20.485Z,7.1
2017-03-17T04:45:22.336Z,7.1
2017-03-17T04:46:24.526Z,7.1
2017-03-17T04:47:26.392Z,7.1
2017-03-17T04:48:28.627Z,7.1
2017-03-17T04:49:30.485Z,7.1
2017-03-17T04:50:32.333Z,7.1
2017-03-17T04:51:34.184Z,7.1
2017-03-17T04:52:36.045Z,7
2017-03-17T04:53:38.579Z,7
2017-03-17T04:54:40.437Z,7
2017-03-17T04:55:42.637Z,7
2017-03-17T04:56:44.494Z,7
2017-03-17T04:57:46.346Z,7
2017-03-17T04:58:48.199Z,7
2017-03-17T04:59:50.051Z,7
2017-03-17T05:00:52.256Z,6.9
2017-03-17T05:01:54.108Z,6.9
2017-03-17T05:02:55.955Z,6.8
2017-03-17T05:03:57.812Z,6.8
2017-03-17T05:05:00.021Z,6.8
2017-03-17T05:06:01.877Z,6.8
2017-03-17T05:07:03.728Z,6.8
2017-03-17T05:08:05.584Z,6.8
2017-03-17T05:09:07.768Z,6.8
2017-03-17T05:10:09.616Z,6.8
2017-03-17T05:11:11.467Z,6.8
2017-03-17T05:12:13.322Z,6.8
2017-03-17T05:13:15.166Z,6.8
2017-03-17T05:14:17.366Z,6.8
2017-03-17T05:15:19.211Z,6.7
2017-03-17T05:16:21.073Z,6.8
2017-03-17T05:17:22.927Z,6.8
2017-03-17T05:18:24.776Z,6.8
2017-03-17T05:19:26.652Z,6.8
2017-03-17T05:20:28.505Z,6.8
2017-03-17T05:21:30.365Z,6.8
2017-03-17T05:22:32.208Z,6.8
2017-03-17T05:23:34.071Z,6.8
2017-03-17T05:24:35.962Z,6.8
2017-03-17T05:25:37.809Z,6.8
2017-03-17T05:26:40.005Z,6.8
2017-03-17T05:27:42.195Z,6.8
2017-03-17T05:28:44.429Z,6.8
2017-03-17T05:29:46.289Z,6.8
2017-03-17T05:30:48.473Z,6.8
2017-03-17T05:31:50.322Z,6.8
2017-03-17T05:32:52.194Z,6.8
2017-03-17T05:33:54.051Z,6.9
2017-03-17T05:34:55.923Z,6.9
2017-03-17T05:35:58.143Z,6.9
2017-03-17T05:37:00.099Z,6.9
2017-03-17T05:38:02.288Z,6.9
2017-03-17T05:39:04.826Z,7
2017-03-17T05:40:06.688Z,7
2017-03-17T05:41:08.886Z,6.9
2017-03-17T05:42:10.754Z,7
2017-03-17T05:43:12.944Z,7
2017-03-17T05:44:15.145Z,6.9
2017-03-17T05:45:16.993Z,6.9
2017-03-17T05:46:19.194Z,6.9
2017-03-17T05:47:21.385Z,6.9
2017-03-17T05:48:23.239Z,6.9
2017-03-17T05:49:25.091Z,6.9
2017-03-17T05:50:26.937Z,6.9
2017-03-17T05:51:28.794Z,6.9
2017-03-17T05:52:30.645Z,6.9
2017-03-17T05:53:32.505Z,6.9
2017-03-17T05:54:34.354Z,6.8
2017-03-17T05:55:36.196Z,6.9
2017-03-17T05:56:38.054Z,6.9
2017-03-17T05:57:40.285Z,6.9
2017-03-17T05:58:42.475Z,6.9
2017-03-17T05:59:44.326Z,6.9
2017-03-17T06:00:46.180Z,7
2017-03-17T06:01:48.030Z,7
2017-03-17T06:02:49.883Z,7
2017-03-17T06:03:51.737Z,7
2017-03-17T06:04:54.960Z,7
2017-03-17T06:05:56.818Z,7
2017-03-17T06:06:58.677Z,7
2017-03-17T06:08:00.525Z,7
2017-03-17T06:09:02.720Z,7
2017-03-17T06:10:04.596Z,7
2017-03-17T06:11:06.783Z,7.1
2017-03-17T06:12:08.636Z,7
2017-03-17T06:13:11.540Z,7
2017-03-17T06:14:13.396Z,7.1
2017-03-17T06:15:15.247Z,7
2017-03-17T06:16:17.100Z,7
2017-03-17T06:17:18.949Z,7
2017-03-17T06:18:20.807Z,7.1
2017-03-17T06:19:23.017Z,7.1
2017-03-17T06:20:24.864Z,7.2
2017-03-17T06:21:26.715Z,7.2
2017-03-17T06:22:28.564Z,7.2
2017-03-17T06:23:30.781Z,7.1
2017-03-17T06:24:32.975Z,7.1
2017-03-17T06:25:34.828Z,7.2
2017-03-17T06:26:37.019Z,7.2
2017-03-17T06:27:38.877Z,7.2
2017-03-17T06:28:41.086Z,7.2
2017-03-17T06:29:42.941Z,7.2
2017-03-17T06:30:44.791Z,7.2
2017-03-17T06:31:46.975Z,7.2
2017-03-17T06:32:49.183Z,7.2
2017-03-17T06:33:51.046Z,7.3
2017-03-17T06:34:53.242Z,7.3
2017-03-17T06:35:55.100Z,7.2
2017-03-17T06:36:56.950Z,7.2
2017-03-17T06:37:58.803Z,7.3
2017-03-17T06:39:00.665Z,7.3
2017-03-17T06:40:02.517Z,7.3
2017-03-17T06:41:04.365Z,7.3
2017-03-17T06:42:06.220Z,7.3
2017-03-17T06:43:08.076Z,7.3
2017-03-17T06:44:09.930Z,7.4
2017-03-17T06:45:12.106Z,7.4
2017-03-17T06:46:14.299Z,7.3
2017-03-17T06:47:16.146Z,7.4
2017-03-17T06:48:18.022Z,7.4
2017-03-17T06:49:20.237Z,7.4
2017-03-17T06:50:22.117Z,7.3
2017-03-17T06:51:23.972Z,7.3
2017-03-17T06:52:25.823Z,7.3
2017-03-17T06:53:28.011Z,7.4
2017-03-17T06:54:29.857Z,7.4
2017-03-17T06:55:31.702Z,7.4
2017-03-17T06:56:33.560Z,7.3
2017-03-17T06:57:36.427Z,7.3
2017-03-17T06:58:38.291Z,7.3
2017-03-17T06:59:40.143Z,7.4
2017-03-17T07:00:42.001Z,7.4
2017-03-17T07:01:43.850Z,7.3
2017-03-17T07:02:46.039Z,7.3
2017-03-17T07:03:48.908Z,7.4
2017-03-17T07:04:51.109Z,7.4
2017-03-17T07:05:52.959Z,7.4
2017-03-17T07:06:54.813Z,7.4
2017-03-17T07:07:57.050Z,7.4
2017-03-17T07:08:59.254Z,7.4
2017-03-17T07:10:01.105Z,7.4
2017-03-17T07:11:02.953Z,7.4
2017-03-17T07:12:05.140Z,7.4
2017-03-17T07:13:07.333Z,7.5
2017-03-17T07:14:09.194Z,7.5
2017-03-17T07:15:11.052Z,7.4
2017-03-17T07:16:12.902Z,7.5
2017-03-17T07:17:14.773Z,7.4
2017-03-17T07:18:16.625Z,7.4
2017-03-17T07:19:18.831Z,7.4
2017-03-17T07:20:20.684Z,7.5
2017-03-17T07:21:22.541Z,7.4
2017-03-17T07:22:24.389Z,7.4
2017-03-17T07:23:26.575Z,7.4
2017-03-17T07:24:28.769Z,7.5
2017-03-17T07:25:30.960Z,7.5
2017-03-17T07:26:32.815Z,7.5
2017-03-17T07:27:35.010Z,7.5
2017-03-17T07:28:37.539Z,7.5
2017-03-17T07:29:39.743Z,7.5
2017-03-17T07:30:41.597Z,7.6
2017-03-17T07:31:43.452Z,7.6
2017-03-17T07:32:45.986Z,7.6
2017-03-17T07:33:48.527Z,7.6
2017-03-17T07:34:50.394Z,7.6
2017-03-17T07:35:52.251Z,7.6
2017-03-17T07:36:54.115Z,7.6
2017-03-17T07:37:56.312Z,7.6
2017-03-17T07:38:58.522Z,7.6
2017-03-17T07:40:00.381Z,7.6
2017-03-17T07:41:02.235Z,7.7
2017-03-17T07:42:04.427Z,7.7
2017-03-17T07:43:06.650Z,7.7
2017-03-17T07:44:08.503Z,7.7
2017-03-17T07:45:10.358Z,7.7
2017-03-17T07:46:12.198Z,7.7
2017-03-17T07:47:14.047Z,7.8
2017-03-17T07:48:15.903Z,7.8
2017-03-17T07:49:18.101Z,7.8
2017-03-17T07:50:20.308Z,7.8
2017-03-17T07:51:22.161Z,7.8
2017-03-17T07:52:24.010Z,7.8
2017-03-17T07:53:26.887Z,7.8
2017-03-17T07:54:28.742Z,7.7
2017-03-17T07:55:30.955Z,7.8
2017-03-17T07:56:32.806Z,7.8
2017-03-17T07:57:34.669Z,7.8
2017-03-17T07:58:36.539Z,7.8
2017-03-17T07:59:38.385Z,7.9
2017-03-17T08:00:40.579Z,7.9
2017-03-17T08:01:42.430Z,7.8
2017-03-17T08:02:44.311Z,7.9
2017-03-17T08:03:46.513Z,7.8
2017-03-17T08:04:48.360Z,7.9
2017-03-17T08:05:50.220Z,7.9
2017-03-17T08:06:52.066Z,7.9
2017-03-17T08:07:54.612Z,7.8
2017-03-17T08:08:56.472Z,7.9
2017-03-17T08:09:59.006Z,7.9
2017-03-17T08:11:00.876Z,8
2017-03-17T08:12:03.078Z,8
2017-03-17T08:13:05.291Z,8
2017-03-17T08:14:07.146Z,8.1
2017-03-17T08:15:09.023Z,8
2017-03-17T08:16:10.880Z,8
2017-03-17T08:17:12.730Z,8.3
2017-03-17T08:18:14.930Z,8.5
2017-03-17T08:19:17.466Z,8.5
2017-03-17T08:20:19.325Z,8.5
2017-03-17T08:21:21.176Z,8.7
2017-03-17T08:22:23.022Z,9
2017-03-17T08:23:25.892Z,8.9
2017-03-17T08:24:28.094Z,9
2017-03-17T08:25:30.305Z,8.9
2017-03-17T08:26:32.514Z,8.8
2017-03-17T08:27:34.701Z,8.7
2017-03-17T08:28:36.559Z,8.7
2017-03-17T08:29:38.416Z,8.7
2017-03-17T08:30:40.615Z,9
2017-03-17T08:31:42.459Z,9
2017-03-17T08:32:44.324Z,9
2017-03-17T08:33:46.189Z,9
2017-03-17T08:34:48.383Z,8.8
2017-03-17T08:35:50.266Z,8.9
2017-03-17T08:36:52.460Z,8.9
2017-03-17T08:37:54.318Z,9.2
2017-03-17T08:38:56.195Z,9.2
2017-03-17T08:39:58.052Z,9.3
2017-03-17T08:40:59.906Z,9.2
2017-03-17T08:42:01.760Z,8.9
2017-03-17T08:43:03.987Z,8.7
2017-03-17T08:44:06.197Z,9
2017-03-17T08:45:08.047Z,9
2017-03-17T08:46:09.895Z,9.5
2017-03-17T08:47:11.747Z,9.5
2017-03-17T08:48:13.605Z,9.5
2017-03-17T08:49:15.462Z,9.4
2017-03-17T08:50:17.331Z,9.6
2017-03-17T08:51:19.207Z,9.5
2017-03-17T08:52:21.052Z,9.5
2017-03-17T08:53:22.931Z,9.5
2017-03-17T08:54:24.818Z,9.6
2017-03-17T08:55:26.675Z,9.8
2017-03-17T08:56:28.554Z,9.5
2017-03-17T08:57:30.413Z,9.5
2017-03-17T08:58:32.269Z,9.5
2017-03-17T08:59:34.126Z,9.4
2017-03-17T09:00:35.991Z,9.6
2017-03-17T09:01:37.841Z,9.3
2017-03-17T09:02:39.702Z,9.2
2017-03-17T09:03:41.560Z,9
2017-03-17T09:04:43.745Z,9.2
2017-03-17T09:05:45.607Z,9.3
2017-03-17T09:06:47.457Z,9
2017-03-17T09:07:50.005Z,9
2017-03-17T09:08:51.850Z,8.9
2017-03-17T09:09:54.053Z,8.9
2017-03-17T09:10:55.910Z,8.9
2017-03-17T09:11:57.763Z,9.3
2017-03-17T09:12:59.622Z,9
2017-03-17T09:14:01.473Z,9.1
2017-03-17T09:15:03.334Z,8.8
2017-03-17T09:16:05.197Z,8.8
2017-03-17T09:17:07.039Z,8.9
2017-03-17T09:18:08.903Z,8.9
2017-03-17T09:19:10.755Z,8.9
2017-03-17T09:20:12.616Z,8.9
2017-03-17T09:21:14.463Z,9.1
2017-03-17T09:22:16.340Z,9.1
2017-03-17T09:23:18.553Z,9.2
2017-03-17T09:24:20.742Z,9.3
2017-03-17T09:25:22.612Z,9
2017-03-17T09:26:24.469Z,9
2017-03-17T09:27:26.320Z,9.2
2017-03-17T09:28:28.176Z,9.2
2017-03-17T09:29:30.364Z,9.1
2017-03-17T09:30:32.227Z,9.3
2017-03-17T09:31:34.078Z,9.3
2017-03-17T09:32:35.953Z,9.1
2017-03-17T09:33:38.150Z,9
2017-03-17T09:34:40.016Z,9.2
2017-03-17T09:35:41.869Z,9.1
2017-03-17T09:36:43.725Z,9.2
2017-03-17T09:37:45.593Z,9.2
2017-03-17T09:38:47.464Z,8.9
2017-03-17T09:39:49.316Z,8.8
2017-03-17T09:40:51.181Z,8.8
2017-03-17T09:41:53.032Z,8.9
2017-03-17T09:42:54.882Z,8.9
2017-03-17T09:43:56.768Z,8.8
2017-03-17T09:44:58.651Z,9
2017-03-17T09:46:00.502Z,9.1
2017-03-17T09:47:02.367Z,9.1
2017-03-17T09:48:04.223Z,9
2017-03-17T09:49:06.079Z,9
2017-03-17T09:50:07.928Z,8.9
2017-03-17T09:51:09.789Z,8.9
2017-03-17T09:52:11.646Z,8.9
2017-03-17T09:53:13.506Z,9
2017-03-17T09:54:15.697Z,9.3
2017-03-17T09:55:17.896Z,9.2
2017-03-17T09:56:19.747Z,9.3
2017-03-17T09:57:21.606Z,9.4
2017-03-17T09:58:23.802Z,9.2
2017-03-17T09:59:26.351Z,9.1
2017-03-17T10:00:28.201Z,9.1
2017-03-17T10:01:30.074Z,9
2017-03-17T10:02:31.954Z,8.8
2017-03-17T10:03:33.805Z,8.8
2017-03-17T10:04:35.659Z,8.9
2017-03-17T10:05:37.515Z,8.9
2017-03-17T10:06:39.383Z,8.9
2017-03-17T10:07:41.229Z,8.5
2017-03-17T10:08:43.087Z,8.8
2017-03-17T10:09:44.944Z,8.9
2017-03-17T10:10:46.797Z,8.8
2017-03-17T10:11:48.640Z,9
2017-03-17T10:12:50.502Z,9
2017-03-17T10:13:52.368Z,8.9
2017-03-17T10:14:54.584Z,9
2017-03-17T10:15:56.444Z,9.1
2017-03-17T10:16:58.295Z,9.1
2017-03-17T10:18:00.149Z,9
2017-03-17T10:19:01.996Z,8.6
2017-03-17T10:20:04.202Z,8.7
2017-03-17T10:21:06.053Z,8.8
2017-03-17T10:22:08.260Z,8.7
2017-03-17T10:23:10.125Z,9
2017-03-17T10:24:11.976Z,8.8
2017-03-17T10:25:13.827Z,8.9
2017-03-17T10:26:15.682Z,8.9
2017-03-17T10:27:17.546Z,8.9
2017-03-17T10:28:19.416Z,8.9
2017-03-17T10:29:21.636Z,9.2
2017-03-17T10:30:23.495Z,9.4
2017-03-17T10:31:25.343Z,9.3
2017-03-17T10:32:27.236Z,9.2
2017-03-17T10:33:29.113Z,9.2
2017-03-17T10:34:30.962Z,9.2
2017-03-17T10:35:32.897Z,9.5
2017-03-17T10:36:34.761Z,9.3
2017-03-17T10:37:36.634Z,9.3
2017-03-17T10:38:38.520Z,9.2
2017-03-17T10:39:42.626Z,9.4
2017-03-17T10:40:44.500Z,9.8
2017-03-17T10:41:46.354Z,9.7
2017-03-17T10:42:48.271Z,9.6
2017-03-17T10:43:50.529Z,9.6
2017-03-17T10:44:52.438Z,9.6
2017-03-17T10:45:54.370Z,9.7
2017-03-17T10:46:56.265Z,9.7
2017-03-17T10:47:58.129Z,9.7
2017-03-17T10:49:00.440Z,9.4
2017-03-17T10:50:02.307Z,9.4
2017-03-17T10:51:04.177Z,9
2017-03-17T10:52:06.133Z,9
2017-03-17T10:53:08.000Z,9.1
2017-03-17T10:54:10.231Z,9.1
2017-03-17T10:55:12.443Z,9.1
2017-03-17T10:56:14.294Z,9.4
2017-03-17T10:57:16.545Z,9.3
2017-03-17T10:58:18.412Z,9.5
2017-03-17T10:59:20.275Z,9.5
2017-03-17T11:00:22.140Z,9.5
2017-03-17T11:01:24.008Z,9.3
2017-03-17T11:02:25.927Z,9.3
2017-03-17T11:03:28.123Z,9.4
2017-03-17T11:04:29.974Z,9.6
2017-03-17T11:05:31.915Z,9.4
2017-03-17T11:06:33.818Z,9.3
2017-03-17T11:07:36.710Z,9.2
2017-03-17T11:08:38.593Z,9.2
2017-03-17T11:09:40.462Z,9.2
2017-03-17T11:10:42.309Z,9
2017-03-17T11:11:44.550Z,9.1
2017-03-17T11:12:46.773Z,9.3
2017-03-17T11:13:48.996Z,9.5
2017-03-17T11:14:50.862Z,9.4
2017-03-17T11:15:52.715Z,9.4
2017-03-17T11:16:54.704Z,9.6
2017-03-17T11:17:56.913Z,10
2017-03-17T11:18:58.791Z,10.4
2017-03-17T11:20:01.034Z,10.4
2017-03-17T11:21:02.880Z,10.7
2017-03-17T11:22:04.840Z,10.9
2017-03-17T11:23:06.699Z,10.8
2017-03-17T11:24:08.574Z,10.6
2017-03-17T11:25:10.429Z,11.3
2017-03-17T11:26:12.282Z,11.1
2017-03-17T11:27:14.137Z,11.2
2017-03-17T11:28:16.346Z,11.1
2017-03-17T11:29:18.208Z,10.5
2017-03-17T11:30:20.432Z,11
2017-03-17T11:31:22.294Z,11.1
2017-03-17T11:32:24.173Z,11.1
2017-03-17T11:33:26.540Z,11.8
2017-03-17T11:34:28.918Z,11.8
2017-03-17T11:35:30.785Z,11.7
2017-03-17T11:36:33.053Z,11.8
2017-03-17T11:37:34.920Z,11.6
2017-03-17T11:38:36.789Z,11.4
2017-03-17T11:39:38.661Z,11.4
2017-03-17T11:40:40.515Z,11.3
2017-03-17T11:41:42.403Z,11.3
2017-03-17T11:42:44.289Z,11.4
2017-03-17T11:43:46.166Z,11.1
2017-03-17T11:44:48.387Z,11.1
2017-03-17T11:45:50.242Z,11.2
2017-03-17T11:46:52.123Z,10.9
2017-03-17T11:47:54.006Z,10.6
2017-03-17T11:48:56.571Z,10.6
2017-03-17T11:49:58.767Z,11.1
2017-03-17T11:51:00.864Z,11.3
2017-03-17T11:52:02.728Z,11.8
2017-03-17T11:53:04.825Z,12
2017-03-17T11:54:07.031Z,11.5
2017-03-17T11:55:09.001Z,10.9
2017-03-17T11:56:10.861Z,10.4
2017-03-17T11:57:12.728Z,10.4
2017-03-17T11:58:14.686Z,10.5
2017-03-17T11:59:16.894Z,10.4
2017-03-17T12:00:18.756Z,10.2
2017-03-17T12:01:20.955Z,10.8
2017-03-17T12:02:23.148Z,10.8
2017-03-17T12:03:25.017Z,10.9
2017-03-17T12:04:26.875Z,10.9
2017-03-17T12:05:28.743Z,10.7
2017-03-17T12:06:30.596Z,10.6
2017-03-17T12:07:32.803Z,10.6
2017-03-17T12:08:34.684Z,10.5
2017-03-17T12:09:36.589Z,10.4
2017-03-17T12:10:38.454Z,10.1
2017-03-17T12:11:43.367Z,10.4
2017-03-17T12:12:45.570Z,10.4
2017-03-17T12:13:47.674Z,10.4
2017-03-17T12:14:49.553Z,10.3
2017-03-17T12:15:51.403Z,10.6
2017-03-17T12:16:53.268Z,10.7
2017-03-17T12:17:55.206Z,10.7
2017-03-17T12:18:57.089Z,10.4
2017-03-17T12:19:59.305Z,10.2
2017-03-17T12:21:01.170Z,10.5
2017-03-17T12:22:03.511Z,10.2
2017-03-17T12:23:05.714Z,9.7
2017-03-17T12:24:07.596Z,9.9
2017-03-17T12:25:09.476Z,9.8
2017-03-17T12:26:11.549Z,10.1
2017-03-17T12:27:13.416Z,9.9
2017-03-17T12:28:15.299Z,9.9
2017-03-17T12:29:17.172Z,9.5
2017-03-17T12:30:19.168Z,9.5
2017-03-17T12:31:21.539Z,9.7
2017-03-17T12:32:23.391Z,9.9
2017-03-17T12:33:26.400Z,10.2
2017-03-17T12:34:29.024Z,9.9
2017-03-17T12:35:30.934Z,9.9
2017-03-17T12:36:33.228Z,10
2017-03-17T12:37:35.094Z,9.9
2017-03-17T12:38:40.562Z,10.1
2017-03-17T12:39:44.205Z,10.2
2017-03-17T12:40:49.791Z,10.3
2017-03-17T12:41:52.130Z,10.4
2017-03-17T12:42:57.176Z,10
2017-03-17T12:44:03.758Z,10
2017-03-17T12:45:06.122Z,9.9
2017-03-17T12:46:07.985Z,9.9
2017-03-17T12:47:09.856Z,9.9
2017-03-17T12:48:11.708Z,9.8
2017-03-17T12:49:14.110Z,10
2017-03-17T12:50:15.962Z,9.9
2017-03-17T12:51:17.829Z,9.7
2017-03-17T12:52:20.381Z,9.7
2017-03-17T12:53:22.244Z,9.4
2017-03-17T12:54:24.456Z,9.4
2017-03-17T12:55:26.310Z,9.4
2017-03-17T12:56:28.201Z,9.3
2017-03-17T12:57:30.055Z,9.5
2017-03-17T12:58:32.213Z,9.5
2017-03-17T12:59:34.074Z,9.6
2017-03-17T13:00:35.948Z,9.5
2017-03-17T13:01:37.803Z,9.5
2017-03-17T13:02:39.695Z,9.5
2017-03-17T13:03:41.594Z,9.5
2017-03-17T13:04:43.469Z,9.4
2017-03-17T13:05:45.347Z,9.5
2017-03-17T13:06:47.445Z,9.5
2017-03-17T13:07:49.306Z,9.4
2017-03-17T13:08:51.244Z,9.4
2017-03-17T13:09:53.129Z,9.4
2017-03-17T13:10:54.994Z,9.3
2017-03-17T13:11:56.894Z,9.2
2017-03-17T13:12:59.094Z,9.1
2017-03-17T13:14:00.967Z,9.2
2017-03-17T13:15:02.828Z,9.2
2017-03-17T13:16:04.690Z,9.3
2017-03-17T13:17:06.552Z,9.2
2017-03-17T13:18:08.421Z,9.1
2017-03-17T13:19:10.491Z,9
2017-03-17T13:20:12.567Z,9.2
2017-03-17T13:21:14.416Z,9.2
2017-03-17T13:22:16.275Z,9.2
2017-03-17T13:23:18.257Z,9.2
2017-03-17T13:24:20.798Z,9.2
2017-03-17T13:25:22.671Z,9.3
2017-03-17T13:26:24.522Z,9.3
2017-03-17T13:27:26.810Z,9.3
2017-03-17T13:28:28.674Z,9.2
2017-03-17T13:29:30.899Z,9.2
2017-03-17T13:30:32.746Z,9.3
2017-03-17T13:31:34.610Z,9.3
2017-03-17T13:32:36.472Z,9.2
2017-03-17T13:33:38.340Z,9.3
2017-03-17T13:34:40.225Z,9.4
2017-03-17T13:35:42.221Z,9.2
2017-03-17T13:36:44.091Z,9.1
2017-03-17T13:37:46.302Z,9
2017-03-17T13:38:48.160Z,9.1
2017-03-17T13:39:50.163Z,9
2017-03-17T13:40:52.040Z,9.1
2017-03-17T13:41:53.898Z,9
2017-03-17T13:42:56.100Z,9
2017-03-17T13:43:58.286Z,8.9
2017-03-17T13:45:00.869Z,8.8
2017-03-17T13:46:02.734Z,8.9
2017-03-17T13:47:04.590Z,8.8
2017-03-17T13:48:06.473Z,8.9
2017-03-17T13:49:08.677Z,8.7
2017-03-17T13:50:10.575Z,8.4
2017-03-17T13:51:12.427Z,8.1
2017-03-17T13:52:14.662Z,7.7
2017-03-17T13:53:16.883Z,7.6
2017-03-17T13:54:19.808Z,7.4
2017-03-17T13:55:21.661Z,7.5
2017-03-17T13:56:23.538Z,7.5
2017-03-17T13:57:25.417Z,7.4
2017-03-17T13:58:27.628Z,7.4
2017-03-17T13:59:29.662Z,7.5
2017-03-17T14:00:31.518Z,7.6
2017-03-17T14:01:33.374Z,7.9
2017-03-17T14:02:35.578Z,7.9
2017-03-17T14:03:37.779Z,7.9
2017-03-17T14:04:39.773Z,8
2017-03-17T14:05:41.634Z,8.1
2017-03-17T14:06:43.542Z,8.2
2017-03-17T14:07:45.399Z,8.1
2017-03-17T14:08:47.614Z,8.3
2017-03-17T14:09:49.629Z,8.3
2017-03-17T14:10:51.524Z,8.4
2017-03-17T14:11:53.723Z,8.6
2017-03-17T14:12:55.579Z,8.8
2017-03-17T14:13:57.444Z,8.8
2017-03-17T14:14:59.675Z,8.7
2017-03-17T14:16:01.538Z,8.7
2017-03-17T14:17:03.747Z,8.8
2017-03-17T14:18:05.611Z,8.6
2017-03-17T14:19:07.482Z,8.5
2017-03-17T14:20:09.388Z,8.5
2017-03-17T14:21:11.258Z,8.7